Time;durP1;ratioP1;P1;durP2;ratioP2;P2;SDS_P1;SDS_P2;PMS_P1;PMS_P2;Temp;Humidity;BMP_temperature;BMP_pressure;BME280_temperature;BME280_humidity;BME280_pressure;Samples;Min_cycle;Max_cycle;Signal;HPM_P1;HPM_P2
2022/09/18 00:00:58;;;;;;;0.45;0.10;;;9.10;99.90;;;;;;4995497;28;20150;-82
2022/09/18 00:03:24;;;;;;;1.05;0.20;;;9.20;99.90;;;;;;5000681;28;20483;-83
2022/09/18 00:05:49;;;;;;;1.75;0.30;;;9.20;99.90;;;;;;4994474;28;20038;-82
2022/09/18 00:08:15;;;;;;;1.15;0.30;;;9.20;99.90;;;;;;4992732;28;20027;-83
2022/09/18 00:10:43;;;;;;;2.40;0.30;;;9.20;99.90;;;;;;4992506;28;20578;-83
2022/09/18 00:13:09;;;;;;;1.30;0.30;;;9.20;99.90;;;;;;4993577;28;20034;-83
2022/09/18 00:15:35;;;;;;;0.68;0.40;;;9.20;99.90;;;;;;4992430;28;20077;-83
2022/09/18 00:18:01;;;;;;;0.98;0.43;;;9.10;99.90;;;;;;4974127;28;20498;-83
2022/09/18 00:20:27;;;;;;;1.50;0.32;;;9.20;99.90;;;;;;4991494;28;20026;-83
2022/09/18 00:22:53;;;;;;;0.80;0.22;;;9.20;99.90;;;;;;4995719;28;20027;-83
2022/09/18 00:25:18;;;;;;;0.63;0.30;;;9.20;99.90;;;;;;4994476;28;20101;-83
2022/09/18 00:27:44;;;;;;;0.75;0.20;;;9.20;99.90;;;;;;4977703;28;20038;-82
2022/09/18 00:30:10;;;;;;;2.17;0.30;;;9.20;99.90;;;;;;4991852;28;20058;-83
2022/09/18 00:32:35;;;;;;;0.20;0.10;;;9.20;99.90;;;;;;4991797;28;20022;-83
2022/09/18 00:35:01;;;;;;;0.70;0.30;;;9.10;99.90;;;;;;4992474;28;20050;-83
2022/09/18 00:37:27;;;;;;;0.52;0.25;;;9.20;99.90;;;;;;5000339;28;20029;-81
2022/09/18 00:39:53;;;;;;;0.47;0.20;;;9.20;99.90;;;;;;5004219;28;20438;-82
2022/09/18 00:42:19;;;;;;;0.50;0.20;;;9.20;99.90;;;;;;4995835;28;20030;-82
2022/09/18 00:44:46;;;;;;;2.50;0.30;;;9.30;99.90;;;;;;5000503;28;20025;-83
2022/09/18 00:47:27;;;;;;;0.77;0.35;;;9.30;99.90;;;;;;4998569;28;20026;-83
2022/09/18 00:50:05;;;;;;;3.65;0.50;;;9.30;99.90;;;;;;4997938;28;20034;-83
2022/09/18 00:52:46;;;;;;;1.27;0.30;;;9.30;99.90;;;;;;4991969;28;20403;-83
2022/09/18 00:55:12;;;;;;;0.95;0.28;;;9.30;99.90;;;;;;4995753;28;20033;-83
2022/09/18 00:57:44;;;;;;;2.60;0.40;;;9.30;99.90;;;;;;4997389;28;20479;-83
2022/09/18 01:00:11;;;;;;;0.52;0.20;;;9.30;99.90;;;;;;4996055;28;20438;-82
2022/09/18 01:02:39;;;;;;;1.48;0.20;;;9.30;99.90;;;;;;5002838;28;20033;-82
2022/09/18 01:05:05;;;;;;;1.98;0.20;;;9.30;99.90;;;;;;4996527;28;20027;-83
2022/09/18 01:07:48;;;;;;;0.47;0.30;;;9.30;99.90;;;;;;4995279;28;20029;-81
2022/09/18 01:10:25;;;;;;;1.50;0.30;;;9.30;99.90;;;;;;4978550;28;20030;-83
2022/09/18 01:12:56;;;;;;;0.88;0.30;;;9.20;99.90;;;;;;4979509;28;20498;-83
2022/09/18 01:15:57;;;;;;;1.70;0.45;;;9.30;99.90;;;;;;4995196;28;20019;-82
2022/09/18 01:18:38;;;;;;;0.70;0.25;;;9.30;99.90;;;;;;4990607;28;20022;-83
2022/09/18 01:21:23;;;;;;;0.63;0.22;;;9.30;99.90;;;;;;4995405;28;20092;-83
2022/09/18 01:24:21;;;;;;;0.65;0.20;;;9.30;99.90;;;;;;4990882;28;20027;-83
2022/09/18 01:27:03;;;;;;;0.32;0.10;;;9.30;99.90;;;;;;4992902;28;20023;-83
2022/09/18 01:29:43;;;;;;;1.20;0.20;;;9.30;99.90;;;;;;4984009;28;20021;-83
2022/09/18 01:32:26;;;;;;;1.85;0.47;;;9.30;99.90;;;;;;4976658;28;20039;-83
2022/09/18 01:35:06;;;;;;;1.30;0.30;;;9.30;99.90;;;;;;5004547;28;20490;-82
2022/09/18 01:37:44;;;;;;;0.20;0.20;;;9.30;99.90;;;;;;5000379;28;20085;-82
2022/09/18 01:40:28;;;;;;;1.23;0.35;;;9.30;99.90;;;;;;4995136;28;20101;-83
2022/09/18 01:43:01;;;;;;;0.90;0.25;;;9.30;99.90;;;;;;4996683;28;20030;-83
2022/09/18 01:45:31;;;;;;;0.88;0.30;;;9.50;99.90;;;;;;4996754;28;20037;-83
2022/09/18 01:48:02;;;;;;;1.33;0.40;;;9.40;99.90;;;;;;4985636;28;20037;-83
2022/09/18 01:50:31;;;;;;;1.42;0.30;;;9.30;99.90;;;;;;4996941;28;20029;-82
2022/09/18 01:53:04;;;;;;;0.88;0.22;;;9.40;99.90;;;;;;4998069;28;20039;-82
2022/09/18 01:55:32;;;;;;;3.30;0.30;;;9.40;99.90;;;;;;4984548;28;20092;-83
2022/09/18 01:58:10;;;;;;;0.63;0.30;;;9.40;99.90;;;;;;4980508;28;20457;-83
2022/09/18 02:00:42;;;;;;;0.43;0.17;;;9.40;99.90;;;;;;4980494;28;20034;-83
2022/09/18 02:03:14;;;;;;;0.45;0.10;;;9.30;99.90;;;;;;5001836;28;20101;-83
2022/09/18 02:05:49;;;;;;;0.38;0.20;;;9.40;99.90;;;;;;4996981;28;20481;-84
2022/09/18 02:08:37;;;;;;;1.00;0.20;;;9.40;99.90;;;;;;4992761;28;20022;-81
2022/09/18 02:11:09;;;;;;;0.77;0.25;;;9.30;99.90;;;;;;4975574;28;20054;-83
2022/09/18 02:13:40;;;;;;;4.90;0.20;;;9.30;99.90;;;;;;4981151;28;20383;-82
2022/09/18 02:16:18;;;;;;;0.68;0.30;;;9.30;99.90;;;;;;4985187;28;20030;-83
2022/09/18 02:18:50;;;;;;;0.63;0.20;;;9.30;99.90;;;;;;4993653;28;20030;-83
2022/09/18 02:21:21;;;;;;;0.10;0.10;;;9.40;99.90;;;;;;4996151;28;20049;-83
2022/09/18 02:23:47;;;;;;;1.50;0.30;;;9.30;99.90;;;;;;4980458;28;20057;-83
2022/09/18 02:26:13;;;;;;;0.75;0.20;;;9.30;99.90;;;;;;4996200;28;20041;-82
2022/09/18 02:28:41;;;;;;;0.75;0.20;;;9.30;99.90;;;;;;4994383;28;20096;-83
2022/09/18 02:31:06;;;;;;;0.38;0.15;;;9.30;99.90;;;;;;4995776;28;20022;-83
2022/09/18 02:33:36;;;;;;;1.58;0.30;;;9.30;99.90;;;;;;4983469;28;20563;-82
2022/09/18 02:36:30;;;;;;;0.77;0.17;;;9.20;99.90;;;;;;4977490;28;20403;-82
2022/09/18 02:39:04;;;;;;;0.80;0.20;;;9.20;99.90;;;;;;4991278;28;20987;-83
2022/09/18 02:41:59;;;;;;;1.25;0.20;;;9.20;99.90;;;;;;4996145;28;20133;-83
2022/09/18 02:44:44;;;;;;;1.30;0.30;;;9.10;99.90;;;;;;4988285;28;20034;-83
2022/09/18 02:47:38;;;;;;;1.63;0.40;;;9.20;99.90;;;;;;5021003;23;20026;-87
2022/09/18 02:50:13;;;;;;;0.35;0.13;;;9.20;99.90;;;;;;5028631;28;20029;-87
2022/09/18 02:52:53;;;;;;;0.20;0.10;;;9.20;99.90;;;;;;5032779;28;20033;-87
2022/09/18 02:55:51;;;;;;;1.40;0.35;;;9.20;99.90;;;;;;5027011;28;20025;-88
2022/09/18 02:58:41;;;;;;;0.43;0.13;;;9.30;99.90;;;;;;5022602;28;20037;-87
2022/09/18 03:01:08;;;;;;;0.75;0.20;;;9.20;99.90;;;;;;5024093;28;20017;-88
2022/09/18 03:03:37;;;;;;;0.40;0.10;;;9.30;99.90;;;;;;5033464;28;20060;-87
2022/09/18 03:06:03;;;;;;;1.02;0.28;;;9.20;99.90;;;;;;5036992;28;20047;-88
2022/09/18 03:08:29;;;;;;;0.30;0.10;;;9.20;99.90;;;;;;5039779;28;20025;-87
2022/09/18 03:10:55;;;;;;;0.98;0.20;;;9.20;99.90;;;;;;5033886;28;20029;-86
2022/09/18 03:13:20;;;;;;;1.60;0.68;;;9.20;99.90;;;;;;5035428;28;20087;-87
2022/09/18 03:15:46;;;;;;;0.30;0.20;;;9.20;99.90;;;;;;5036757;28;20122;-85
2022/09/18 03:18:13;;;;;;;0.63;0.20;;;9.20;99.90;;;;;;5047059;28;20021;-86
2022/09/18 03:20:41;;;;;;;0.30;0.17;;;9.60;99.90;;;;;;5032380;28;20490;-87
2022/09/18 03:23:08;;;;;;;2.53;0.25;;;9.10;99.90;;;;;;5029791;28;20041;-87
2022/09/18 03:25:34;;;;;;;0.40;0.20;;;9.10;99.90;;;;;;5032262;28;20026;-86
2022/09/18 03:27:59;;;;;;;0.35;0.20;;;9.10;99.90;;;;;;5029799;28;20021;-86
2022/09/18 03:30:25;;;;;;;0.35;0.10;;;9.00;99.90;;;;;;5031017;28;20099;-86
2022/09/18 03:32:52;;;;;;;1.67;0.40;;;9.00;99.90;;;;;;5029891;28;20060;-87
2022/09/18 03:35:17;;;;;;;1.75;0.30;;;9.00;99.90;;;;;;5031867;28;20022;-86
2022/09/18 03:37:43;;;;;;;0.15;0.10;;;9.00;99.90;;;;;;5030615;28;20121;-86
2022/09/18 03:40:09;;;;;;;0.40;0.20;;;9.00;99.90;;;;;;5029612;28;20022;-86
2022/09/18 03:42:34;;;;;;;0.52;0.25;;;9.10;99.90;;;;;;5027005;28;20497;-87
2022/09/18 03:45:00;;;;;;;1.60;0.30;;;9.10;99.90;;;;;;5030399;28;20108;-86
2022/09/18 03:47:26;;;;;;;2.42;0.30;;;9.00;99.90;;;;;;5029116;28;20035;-87
2022/09/18 03:49:51;;;;;;;1.52;0.20;;;9.10;99.90;;;;;;5031029;28;20033;-86
2022/09/18 03:52:18;;;;;;;1.40;0.30;;;9.10;99.90;;;;;;5028709;28;20079;-86
2022/09/18 03:54:43;;;;;;;0.73;0.22;;;9.10;99.90;;;;;;5031002;28;20026;-87
2022/09/18 03:57:09;;;;;;;0.63;0.25;;;9.40;99.90;;;;;;5029695;28;20040;-86
2022/09/18 03:59:34;;;;;;;0.88;0.38;;;9.10;99.90;;;;;;5030079;28;20033;-87
2022/09/18 04:02:00;;;;;;;0.35;0.17;;;9.00;99.90;;;;;;5031030;28;20029;-86
2022/09/18 04:04:27;;;;;;;0.65;0.22;;;9.00;99.90;;;;;;5024622;28;20435;-87
2022/09/18 04:06:52;;;;;;;0.32;0.13;;;9.00;99.90;;;;;;5024206;28;20030;-86
2022/09/18 04:09:18;;;;;;;0.32;0.20;;;9.00;99.90;;;;;;5028915;28;20104;-86
2022/09/18 04:11:44;;;;;;;0.45;0.17;;;9.00;99.90;;;;;;5031569;28;20062;-86
2022/09/18 04:14:10;;;;;;;1.70;0.40;;;9.00;99.90;;;;;;5034524;28;20045;-87
2022/09/18 04:16:36;;;;;;;0.35;0.25;;;9.20;99.90;;;;;;5033322;28;20068;-87
2022/09/18 04:19:02;;;;;;;0.60;0.20;;;9.00;99.90;;;;;;5033217;28;20014;-87
2022/09/18 04:21:27;;;;;;;1.77;0.20;;;9.00;99.90;;;;;;5032620;28;20156;-86
2022/09/18 04:23:55;;;;;;;0.52;0.20;;;9.00;99.90;;;;;;5034563;28;20014;-86
2022/09/18 04:26:20;;;;;;;0.70;0.25;;;9.20;99.90;;;;;;5034146;28;20021;-87
2022/09/18 04:28:46;;;;;;;0.85;0.17;;;9.00;99.90;;;;;;5038677;28;20390;-87
2022/09/18 04:31:12;;;;;;;0.30;0.20;;;9.20;99.90;;;;;;5034717;28;20032;-86
2022/09/18 04:33:37;;;;;;;0.82;0.20;;;9.00;99.90;;;;;;5039551;28;20030;-87
2022/09/18 04:36:03;;;;;;;0.55;0.13;;;9.10;99.90;;;;;;5038519;28;20026;-86
2022/09/18 04:38:28;;;;;;;1.25;0.30;;;9.00;99.90;;;;;;5039401;28;20051;-87
2022/09/18 04:40:59;;;;;;;0.60;0.30;;;9.00;99.90;;;;;;5039587;28;20103;-87
2022/09/18 04:43:26;;;;;;;0.73;0.20;;;9.00;99.90;;;;;;5035024;28;20037;-87
2022/09/18 04:45:52;;;;;;;1.38;0.22;;;9.00;99.90;;;;;;5034696;28;20033;-87
2022/09/18 04:48:19;;;;;;;0.82;0.28;;;9.00;99.90;;;;;;5031808;28;20490;-87
2022/09/18 04:50:46;;;;;;;0.35;0.30;;;9.10;99.90;;;;;;5027363;28;20042;-87
2022/09/18 04:53:12;;;;;;;0.10;0.10;;;9.10;99.90;;;;;;5031823;28;20039;-87
2022/09/18 04:55:38;;;;;;;1.10;0.20;;;9.10;99.90;;;;;;5032937;28;20537;-87
2022/09/18 04:58:04;;;;;;;1.63;0.20;;;9.10;99.90;;;;;;5034470;28;20039;-87
2022/09/18 05:00:30;;;;;;;1.55;0.20;;;9.10;99.90;;;;;;5032409;28;20086;-88
2022/09/18 05:02:56;;;;;;;0.47;0.20;;;9.10;99.90;;;;;;5029833;28;20045;-87
2022/09/18 05:05:22;;;;;;;0.30;0.10;;;9.10;99.90;;;;;;5033925;28;20033;-87
2022/09/18 05:07:48;;;;;;;1.08;0.38;;;9.20;99.90;;;;;;5027492;28;20059;-87
2022/09/18 05:10:13;;;;;;;0.35;0.20;;;9.10;99.90;;;;;;5027511;28;20072;-86
2022/09/18 05:12:40;;;;;;;0.60;0.50;;;9.10;99.90;;;;;;5025227;28;20017;-86
2022/09/18 05:15:06;;;;;;;0.90;0.28;;;9.10;99.90;;;;;;5029853;28;20026;-87
2022/09/18 05:17:32;;;;;;;0.85;0.20;;;9.10;99.90;;;;;;5025239;28;20563;-87
2022/09/18 05:19:58;;;;;;;0.55;0.20;;;9.00;99.90;;;;;;5032391;28;20022;-87
2022/09/18 05:22:24;;;;;;;1.23;0.30;;;9.10;99.90;;;;;;5032160;28;20047;-87
2022/09/18 05:24:49;;;;;;;0.38;0.20;;;9.10;99.90;;;;;;5034155;28;20680;-88
2022/09/18 05:27:15;;;;;;;2.25;0.20;;;9.10;99.90;;;;;;5032374;28;20032;-87
2022/09/18 05:29:41;;;;;;;2.40;0.30;;;9.10;99.90;;;;;;5031489;28;20028;-87
2022/09/18 05:32:07;;;;;;;1.40;0.30;;;9.10;99.90;;;;;;5033460;28;20057;-87
2022/09/18 05:34:32;;;;;;;1.48;0.30;;;9.10;99.90;;;;;;5030534;28;20492;-86
2022/09/18 05:36:59;;;;;;;0.68;0.20;;;9.10;99.90;;;;;;5032603;28;20110;-87
2022/09/18 05:39:25;;;;;;;0.95;0.13;;;9.10;99.90;;;;;;5030622;28;20109;-87
2022/09/18 05:41:51;;;;;;;2.65;0.43;;;9.10;99.90;;;;;;5029146;28;20045;-86
2022/09/18 05:44:18;;;;;;;0.63;0.22;;;9.20;99.90;;;;;;5028432;28;20021;-87
2022/09/18 05:46:46;;;;;;;1.25;0.60;;;9.20;99.90;;;;;;5031075;28;20432;-87
2022/09/18 05:49:12;;;;;;;0.35;0.30;;;9.20;99.90;;;;;;5028027;28;20037;-87
2022/09/18 05:51:38;;;;;;;0.98;0.35;;;9.20;99.90;;;;;;5031457;28;20048;-87
2022/09/18 05:54:04;;;;;;;0.47;0.30;;;9.20;99.90;;;;;;5030559;28;20037;-87
2022/09/18 05:56:30;;;;;;;0.20;0.10;;;9.20;99.90;;;;;;5031226;28;20390;-87
2022/09/18 05:58:56;;;;;;;1.77;0.50;;;9.30;99.90;;;;;;5025552;28;20082;-86
2022/09/18 06:01:22;;;;;;;0.80;0.60;;;9.20;99.90;;;;;;5032360;28;20029;-87
2022/09/18 06:03:50;;;;;;;0.55;0.30;;;9.30;99.90;;;;;;5031251;28;20021;-87
2022/09/18 06:06:16;;;;;;;1.05;0.30;;;9.30;99.90;;;;;;5029907;28;20032;-88
2022/09/18 06:08:42;;;;;;;0.32;0.20;;;9.30;99.90;;;;;;5027862;28;20410;-87
2022/09/18 06:11:07;;;;;;;0.40;0.20;;;9.30;99.90;;;;;;5031960;28;20026;-87
2022/09/18 06:13:33;;;;;;;0.65;0.20;;;9.30;99.90;;;;;;5032215;28;20406;-87
2022/09/18 06:15:59;;;;;;;0.93;0.30;;;9.30;99.90;;;;;;5032063;28;20092;-87
2022/09/18 06:18:25;;;;;;;3.33;0.45;;;9.30;99.90;;;;;;5030132;28;20036;-88
2022/09/18 06:20:56;;;;;;;0.40;0.22;;;9.30;99.90;;;;;;5031181;28;20033;-88
2022/09/18 06:23:23;;;;;;;1.70;0.17;;;9.30;99.90;;;;;;5031187;28;20034;-87
2022/09/18 06:25:54;;;;;;;2.65;0.40;;;9.40;99.90;;;;;;5031893;28;20034;-87
2022/09/18 06:28:20;;;;;;;0.40;0.20;;;9.30;99.90;;;;;;5030778;28;20030;-87
2022/09/18 06:30:45;;;;;;;2.05;0.45;;;9.30;99.90;;;;;;5024295;28;20096;-87
2022/09/18 06:33:11;;;;;;;0.80;0.30;;;9.40;99.90;;;;;;5030339;28;20035;-87
2022/09/18 06:35:41;;;;;;;1.00;0.30;;;9.40;99.90;;;;;;5031269;28;20053;-87
2022/09/18 06:38:07;;;;;;;0.32;0.10;;;9.70;99.90;;;;;;5030846;28;20009;-87
2022/09/18 06:40:33;;;;;;;1.25;0.20;;;9.50;99.90;;;;;;5031899;28;20032;-86
2022/09/18 06:43:02;;;;;;;1.08;0.20;;;9.30;99.90;;;;;;5029744;28;20075;-87
2022/09/18 06:45:29;;;;;;;0.57;0.30;;;9.40;99.90;;;;;;5024988;28;20026;-87
2022/09/18 06:48:02;;;;;;;0.30;0.20;;;9.40;99.90;;;;;;5029192;28;20080;-87
2022/09/18 06:50:28;;;;;;;2.85;0.28;;;9.40;99.90;;;;;;5023244;28;20401;-87
2022/09/18 06:52:54;;;;;;;0.80;0.40;;;9.50;99.90;;;;;;5031721;28;20037;-86
2022/09/18 06:55:20;;;;;;;0.80;0.38;;;9.40;99.90;;;;;;5030123;28;20460;-88
2022/09/18 06:57:55;;;;;;;1.00;0.38;;;9.50;99.90;;;;;;5028511;28;20017;-87
2022/09/18 07:00:22;;;;;;;0.50;0.30;;;9.50;99.90;;;;;;5030113;28;20104;-86
2022/09/18 07:02:58;;;;;;;2.03;0.40;;;9.60;99.90;;;;;;5029528;28;20060;-87
2022/09/18 07:05:29;;;;;;;0.47;0.22;;;9.60;99.90;;;;;;5031140;28;20391;-87
2022/09/18 07:07:55;;;;;;;0.45;0.20;;;9.60;99.90;;;;;;5028596;28;20041;-87
2022/09/18 07:10:22;;;;;;;1.20;0.32;;;9.60;99.90;;;;;;5029509;28;20033;-87
2022/09/18 07:12:48;;;;;;;2.10;0.47;;;9.60;99.90;;;;;;5029167;28;20375;-87
2022/09/18 07:15:16;;;;;;;1.30;0.52;;;9.60;99.90;;;;;;5030420;28;20013;-87
2022/09/18 07:17:42;;;;;;;1.50;0.30;;;9.70;99.90;;;;;;5028969;28;20022;-87
2022/09/18 07:20:10;;;;;;;1.85;0.50;;;9.80;99.90;;;;;;5030399;28;20143;-87
2022/09/18 07:22:36;;;;;;;1.60;0.40;;;9.80;99.90;;;;;;5029522;28;20029;-87
2022/09/18 07:25:02;;;;;;;0.70;0.30;;;9.90;99.90;;;;;;5030703;28;20520;-87
2022/09/18 07:27:28;;;;;;;1.20;0.50;;;9.90;99.90;;;;;;5029010;28;20115;-87
2022/09/18 07:29:55;;;;;;;0.70;0.40;;;9.90;99.90;;;;;;5024504;28;20087;-86
2022/09/18 07:32:21;;;;;;;2.03;0.30;;;9.90;99.90;;;;;;5030082;28;20401;-87
2022/09/18 07:34:47;;;;;;;1.10;0.65;;;9.80;99.90;;;;;;5029120;28;20028;-87
2022/09/18 07:37:13;;;;;;;0.98;0.30;;;9.90;99.90;;;;;;5028749;28;20017;-87
2022/09/18 07:39:38;;;;;;;0.85;0.38;;;9.90;99.90;;;;;;5028422;28;21359;-87
2022/09/18 07:42:04;;;;;;;0.80;0.30;;;9.90;99.90;;;;;;5028884;28;20028;-86
2022/09/18 07:44:33;;;;;;;0.65;0.25;;;9.90;99.90;;;;;;5027942;28;20060;-86
2022/09/18 07:46:58;;;;;;;2.40;0.30;;;9.90;99.90;;;;;;5027258;28;20025;-86
2022/09/18 07:49:24;;;;;;;1.48;0.40;;;9.90;99.90;;;;;;5025712;28;20049;-86
2022/09/18 07:51:50;;;;;;;1.13;0.35;;;9.90;99.90;;;;;;5029003;28;20024;-86
2022/09/18 07:54:16;;;;;;;0.75;0.30;;;9.90;99.90;;;;;;5028553;28;20025;-86
2022/09/18 07:56:42;;;;;;;3.25;0.80;;;10.00;99.90;;;;;;5027660;28;20076;-86
2022/09/18 07:59:08;;;;;;;1.10;0.40;;;10.00;99.90;;;;;;5030255;28;20482;-86
2022/09/18 08:01:34;;;;;;;0.80;0.30;;;10.00;99.90;;;;;;5030304;28;20107;-86
2022/09/18 08:04:00;;;;;;;0.13;0.10;;;10.20;99.90;;;;;;5029739;28;20138;-87
2022/09/18 08:06:26;;;;;;;0.85;0.20;;;10.20;99.90;;;;;;5030692;28;20022;-86
2022/09/18 08:08:52;;;;;;;1.65;0.25;;;10.10;99.90;;;;;;5030102;28;20108;-86
2022/09/18 08:11:17;;;;;;;0.75;0.30;;;10.10;99.90;;;;;;5029242;28;20113;-86
2022/09/18 08:13:43;;;;;;;1.90;0.30;;;10.10;99.90;;;;;;5027361;28;20436;-87
2022/09/18 08:16:09;;;;;;;0.43;0.20;;;10.20;99.90;;;;;;5028184;28;20013;-86
2022/09/18 08:18:37;;;;;;;0.90;0.28;;;10.20;99.90;;;;;;5023739;28;20130;-86
2022/09/18 08:21:03;;;;;;;1.75;0.47;;;10.10;99.90;;;;;;5028105;28;20025;-86
2022/09/18 08:23:28;;;;;;;0.60;0.30;;;10.20;99.90;;;;;;5028920;28;20021;-86
2022/09/18 08:25:54;;;;;;;0.55;0.20;;;10.20;99.90;;;;;;5029237;28;20362;-87
2022/09/18 08:28:19;;;;;;;1.85;0.60;;;10.20;99.90;;;;;;5028675;28;20414;-87
2022/09/18 08:30:45;;;;;;;2.45;0.35;;;10.20;99.90;;;;;;5030869;28;20060;-87
2022/09/18 08:33:11;;;;;;;0.70;0.40;;;10.60;99.90;;;;;;5029094;28;20096;-87
2022/09/18 08:35:36;;;;;;;0.45;0.25;;;10.30;99.90;;;;;;5030627;28;20013;-87
2022/09/18 08:38:02;;;;;;;0.93;0.28;;;10.40;99.90;;;;;;5029285;28;20025;-87
2022/09/18 08:40:42;;;;;;;0.63;0.30;;;10.40;99.90;;;;;;5029090;28;20025;-87
2022/09/18 08:43:25;;;;;;;1.15;0.40;;;10.40;99.90;;;;;;5045610;28;20730;-86
2022/09/18 08:46:05;;;;;;;0.82;0.43;;;10.30;99.90;;;;;;5026756;28;20079;-86
2022/09/18 08:48:36;;;;;;;1.25;0.40;;;10.40;99.90;;;;;;5041502;23;20033;-86
2022/09/18 08:51:13;;;;;;;0.75;0.20;;;10.40;99.90;;;;;;5011649;28;20034;-86
2022/09/18 08:53:44;;;;;;;0.47;0.30;;;10.50;99.90;;;;;;4998236;28;20450;-85
2022/09/18 08:56:20;;;;;;;3.38;0.45;;;10.50;99.90;;;;;;4993228;28;20037;-85
2022/09/18 08:58:59;;;;;;;0.75;0.20;;;10.40;99.90;;;;;;4990388;28;20545;-85
2022/09/18 09:01:37;;;;;;;1.27;0.30;;;10.50;99.90;;;;;;4977837;28;20049;-85
2022/09/18 09:04:21;;;;;;;1.75;0.30;;;10.50;99.90;;;;;;4991956;28;20057;-86
2022/09/18 09:06:56;;;;;;;0.90;0.30;;;10.60;99.90;;;;;;5003466;28;20044;-85
2022/09/18 09:09:30;;;;;;;0.60;0.30;;;10.70;99.90;;;;;;4982867;28;20034;-85
2022/09/18 09:12:10;;;;;;;3.50;0.75;;;10.70;99.90;;;;;;4993366;28;20026;-85
2022/09/18 09:14:48;;;;;;;0.75;0.30;;;10.70;99.90;;;;;;4977729;28;20022;-85
2022/09/18 09:17:38;;;;;;;1.27;0.47;;;10.80;99.90;;;;;;5001403;28;20019;-84
2022/09/18 09:20:28;;;;;;;2.90;0.50;;;10.80;99.90;;;;;;4981983;28;20037;-84
2022/09/18 09:23:02;;;;;;;1.27;0.38;;;10.90;99.90;;;;;;5005588;28;20022;-82
2022/09/18 09:26:00;;;;;;;2.92;0.60;;;10.90;99.90;;;;;;4991473;28;20034;-81
2022/09/18 09:28:42;;;;;;;0.57;0.28;;;11.00;99.90;;;;;;4975781;28;20034;-82
2022/09/18 09:31:09;;;;;;;3.25;0.40;;;11.00;99.90;;;;;;4981357;28;20022;-82
2022/09/18 09:33:53;;;;;;;0.88;0.40;;;11.10;99.90;;;;;;4978079;28;20030;-82
2022/09/18 09:36:23;;;;;;;1.23;0.25;;;11.10;99.90;;;;;;4985443;28;20433;-81
2022/09/18 09:38:54;;;;;;;1.27;0.40;;;11.10;99.90;;;;;;5018344;28;20061;-82
2022/09/18 09:41:33;;;;;;;0.98;0.38;;;11.10;99.90;;;;;;5013480;28;20036;-80
2022/09/18 09:44:26;;;;;;;1.80;0.30;;;11.20;99.90;;;;;;5026667;28;20027;-81
2022/09/18 09:47:23;;;;;;;0.52;0.30;;;11.20;99.90;;;;;;5013494;28;20041;-81
2022/09/18 09:50:06;;;;;;;4.47;0.63;;;11.20;99.90;;;;;;5022717;28;20031;-81
2022/09/18 09:52:32;;;;;;;0.82;0.43;;;11.30;99.90;;;;;;5006450;28;20030;-80
2022/09/18 09:55:12;;;;;;;1.98;0.50;;;11.40;99.90;;;;;;4993350;28;20042;-78
2022/09/18 09:58:02;;;;;;;1.27;0.20;;;11.50;99.90;;;;;;5007259;28;20014;-79
2022/09/18 10:00:39;;;;;;;1.00;0.20;;;11.70;99.90;;;;;;5006678;28;20120;-78
2022/09/18 10:03:16;;;;;;;2.05;0.30;;;11.90;99.90;;;;;;5006699;28;20022;-78
2022/09/18 10:05:53;;;;;;;1.52;0.43;;;12.20;99.90;;;;;;5009125;28;20085;-79
2022/09/18 10:08:30;;;;;;;1.67;0.43;;;12.40;99.90;;;;;;4988061;28;20132;-79
2022/09/18 10:10:59;;;;;;;1.30;0.28;;;12.70;99.90;;;;;;5022081;28;20034;-78
2022/09/18 10:13:36;;;;;;;1.27;0.40;;;13.00;99.90;;;;;;5016298;28;20026;-78
2022/09/18 10:16:22;;;;;;;1.55;0.25;;;13.30;99.90;;;;;;5020840;28;20022;-78
2022/09/18 10:18:48;;;;;;;0.88;0.32;;;13.40;99.90;;;;;;4994990;28;20032;-78
2022/09/18 10:21:17;;;;;;;1.23;0.20;;;13.50;99.90;;;;;;5034535;28;20097;-77
2022/09/18 10:23:48;;;;;;;2.05;0.10;;;13.60;99.90;;;;;;5028653;28;20483;-79
2022/09/18 10:26:30;;;;;;;3.10;0.43;;;13.70;99.90;;;;;;5010471;28;20149;-77
2022/09/18 10:28:55;;;;;;;0.85;0.30;;;13.80;99.90;;;;;;4995229;28;20049;-78
2022/09/18 10:31:21;;;;;;;0.88;0.20;;;13.70;99.90;;;;;;4995258;28;20033;-77
2022/09/18 10:33:50;;;;;;;1.40;0.30;;;13.70;99.90;;;;;;5000341;28;20026;-77
2022/09/18 10:36:31;;;;;;;0.77;0.32;;;13.80;99.90;;;;;;4988133;28;20049;-77
2022/09/18 10:38:58;;;;;;;0.67;0.20;;;13.90;99.90;;;;;;5012743;28;20037;-78
2022/09/18 10:41:35;;;;;;;0.63;0.22;;;14.00;99.90;;;;;;5003507;28;20014;-78
2022/09/18 10:44:13;;;;;;;0.50;0.20;;;14.00;99.90;;;;;;4987622;28;20041;-77
2022/09/18 10:46:57;;;;;;;1.33;0.30;;;14.10;99.90;;;;;;4995475;28;20094;-77
2022/09/18 10:49:33;;;;;;;1.42;0.20;;;14.10;99.90;;;;;;5008858;28;20022;-78
2022/09/18 10:52:33;;;;;;;0.40;0.10;;;14.10;99.90;;;;;;4993623;28;20033;-78
2022/09/18 10:55:08;;;;;;;0.22;0.10;;;14.20;99.90;;;;;;5002976;28;20019;-78
2022/09/18 10:58:13;;;;;;;1.30;0.30;;;14.00;99.90;;;;;;4997767;28;20068;-77
2022/09/18 11:00:44;;;;;;;2.65;0.30;;;14.00;99.90;;;;;;4997341;28;20054;-78
2022/09/18 11:03:30;;;;;;;1.30;0.17;;;14.30;99.90;;;;;;4987579;28;20510;-76
2022/09/18 11:05:58;;;;;;;0.43;0.10;;;14.50;99.90;;;;;;5017968;28;20476;-79
2022/09/18 11:08:27;;;;;;;2.80;0.45;;;14.50;99.90;;;;;;5007421;28;20032;-78
2022/09/18 11:11:01;;;;;;;1.48;0.15;;;14.50;99.90;;;;;;4985826;28;20057;-78
2022/09/18 11:13:29;;;;;;;0.43;0.10;;;14.50;99.90;;;;;;4994798;28;20025;-79
2022/09/18 11:15:57;;;;;;;0.57;0.20;;;14.50;99.90;;;;;;4994038;28;20109;-81
2022/09/18 11:18:24;;;;;;;0.55;0.20;;;14.40;99.90;;;;;;4991128;28;20021;-83
2022/09/18 11:20:52;;;;;;;0.52;0.43;;;14.50;99.90;;;;;;5005436;28;20506;-83
2022/09/18 11:23:20;;;;;;;0.88;0.20;;;14.30;99.90;;;;;;4999431;28;20092;-82
2022/09/18 11:25:46;;;;;;;0.77;0.32;;;14.10;99.90;;;;;;5000391;28;20034;-82
2022/09/18 11:28:39;;;;;;;0.93;0.30;;;14.10;99.90;;;;;;5017718;28;20569;-82
2022/09/18 11:31:14;;;;;;;1.52;0.20;;;14.20;99.90;;;;;;4990727;28;20065;-82
2022/09/18 11:33:56;;;;;;;0.28;0.10;;;14.40;99.90;;;;;;4984933;28;20032;-82
2022/09/18 11:36:24;;;;;;;0.38;0.25;;;14.50;99.90;;;;;;5004674;28;20053;-83
2022/09/18 11:38:51;;;;;;;0.30;0.10;;;14.80;99.90;;;;;;4984245;28;20038;-83
2022/09/18 11:41:25;;;;;;;2.65;0.20;;;14.90;99.90;;;;;;5000754;28;20040;-81
2022/09/18 11:44:04;;;;;;;0.55;0.10;;;15.10;99.90;;;;;;5000282;28;20167;-81
2022/09/18 11:47:11;;;;;;;0.88;0.10;;;15.00;99.90;;;;;;5005261;28;20057;-81
2022/09/18 11:49:43;;;;;;;0.80;0.28;;;15.00;99.90;;;;;;5004466;28;20022;-80
2022/09/18 11:52:19;;;;;;;0.17;0.10;;;15.50;99.90;;;;;;5019284;28;20098;-81
2022/09/18 11:55:10;;;;;;;0.93;0.20;;;15.70;99.90;;;;;;5017790;28;20034;-80
2022/09/18 11:57:40;;;;;;;1.33;0.20;;;15.80;99.90;;;;;;4992587;28;20041;-80
2022/09/18 12:00:12;;;;;;;0.88;0.30;;;15.90;99.90;;;;;;5008756;28;20026;-80
2022/09/18 12:02:48;;;;;;;;;;;15.80;99.90;;;;;;5001861;28;20094;-80
2022/09/18 12:05:19;;;;;;;1.55;0.10;;;15.80;99.90;;;;;;4988710;28;19992;-80
2022/09/18 12:08:06;;;;;;;0.47;0.20;;;15.70;99.90;;;;;;4987621;28;20038;-81
2022/09/18 12:10:43;;;;;;;1.25;0.20;;;15.60;99.90;;;;;;5005020;28;20026;-79
2022/09/18 12:13:27;;;;;;;0.55;0.15;;;15.50;99.90;;;;;;5007750;28;20022;-80
2022/09/18 12:16:01;;;;;;;0.20;0.10;;;15.20;99.90;;;;;;5005541;28;20019;-80
2022/09/18 12:18:33;;;;;;;1.25;0.20;;;14.90;99.90;;;;;;5006819;28;20018;-80
2022/09/18 12:21:08;;;;;;;1.73;0.20;;;14.90;99.90;;;;;;5007896;28;20023;-80
2022/09/18 12:23:34;;;;;;;0.85;0.22;;;15.00;99.90;;;;;;4989539;28;20053;-79
2022/09/18 12:26:35;;;;;;;0.00;0.00;;;15.00;99.90;;;;;;5009021;28;20051;-80
2022/09/18 12:29:19;;;;;;;0.47;0.10;;;15.00;99.90;;;;;;5005681;28;20034;-80
2022/09/18 12:31:55;;;;;;;0.52;0.10;;;15.20;99.90;;;;;;5006352;28;20038;-80
2022/09/18 12:34:27;;;;;;;0.32;0.10;;;15.30;99.90;;;;;;5008170;28;20478;-81
2022/09/18 12:37:16;;;;;;;;;;;15.30;99.90;;;;;;5009400;28;20539;-80
2022/09/18 12:40:07;;;;;;;0.10;0.10;;;15.30;99.90;;;;;;4990526;28;19910;-80
2022/09/18 12:42:55;;;;;;;1.65;0.17;;;15.20;99.90;;;;;;5008567;28;20035;-80
2022/09/18 12:45:30;;;;;;;0.30;0.00;;;15.30;99.90;;;;;;5007613;28;20026;-80
2022/09/18 12:48:30;;;;;;;0.93;0.20;;;15.30;99.90;;;;;;4989331;28;20084;-80
2022/09/18 12:51:18;;;;;;;0.47;0.25;;;15.60;99.90;;;;;;5004436;28;20041;-80
2022/09/18 12:54:14;;;;;;;0.32;0.03;;;15.70;99.90;;;;;;5007701;28;20499;-80
2022/09/18 12:57:18;;;;;;;0.30;0.10;;;16.00;99.90;;;;;;5006989;28;20070;-80
2022/09/18 12:59:53;;;;;;;0.88;0.10;;;16.40;99.90;;;;;;4987081;28;20022;-81
2022/09/18 13:02:48;;;;;;;0.00;0.00;;;16.40;99.90;;;;;;5008529;28;20023;-79
2022/09/18 13:05:38;;;;;;;0.47;0.10;;;16.60;99.90;;;;;;4999128;28;20113;-80
2022/09/18 13:08:12;;;;;;;0.57;0.17;;;16.40;99.50;;;;;;4985576;28;20406;-80
2022/09/18 13:10:43;;;;;;;0.40;0.10;;;16.30;99.70;;;;;;5014993;28;20097;-80
2022/09/18 13:13:19;;;;;;;0.20;0.00;;;15.90;99.80;;;;;;4993795;28;20018;-81
2022/09/18 13:15:56;;;;;;;0.80;0.10;;;16.00;99.90;;;;;;5001758;28;20284;-80
2022/09/18 13:18:40;;;;;;;0.00;0.00;;;15.90;99.90;;;;;;4996681;28;20014;-80